sensor_id;sensor_type;location;lat;lon;timestamp;P1;durP1;ratioP1;P2;durP2;ratioP2
10801;SDS011;5453;50.852;7.102;2023-02-12T00:01:55;15.98;;;7.07;;
10801;SDS011;5453;50.852;7.102;2023-02-12T00:04:27;14.43;;;6.78;;
10801;SDS011;5453;50.852;7.102;2023-02-12T00:06:59;17.17;;;6.90;;
10801;SDS011;5453;50.852;7.102;2023-02-12T00:09:32;18.52;;;7.45;;
10801;SDS011;5453;50.852;7.102;2023-02-12T00:12:04;13.95;;;6.40;;
10801;SDS011;5453;50.852;7.102;2023-02-12T00:14:37;16.65;;;7.00;;
10801;SDS011;5453;50.852;7.102;2023-02-12T00:17:09;17.50;;;7.28;;
10801;SDS011;5453;50.852;7.102;2023-02-12T00:19:41;15.48;;;7.55;;
10801;SDS011;5453;50.852;7.102;2023-02-12T00:22:13;19.75;;;8.35;;
10801;SDS011;5453;50.852;7.102;2023-02-12T00:24:47;17.42;;;7.68;;
10801;SDS011;5453;50.852;7.102;2023-02-12T00:27:19;18.60;;;7.75;;
10801;SDS011;5453;50.852;7.102;2023-02-12T00:29:51;17.30;;;8.13;;
10801;SDS011;5453;50.852;7.102;2023-02-12T00:32:23;17.55;;;8.00;;
10801;SDS011;5453;50.852;7.102;2023-02-12T00:34:55;17.60;;;7.53;;
10801;SDS011;5453;50.852;7.102;2023-02-12T00:37:27;19.95;;;8.48;;
10801;SDS011;5453;50.852;7.102;2023-02-12T00:40:01;19.15;;;8.38;;
10801;SDS011;5453;50.852;7.102;2023-02-12T00:42:33;21.55;;;9.55;;
10801;SDS011;5453;50.852;7.102;2023-02-12T00:45:06;17.85;;;7.72;;
10801;SDS011;5453;50.852;7.102;2023-02-12T00:47:39;17.30;;;7.43;;
10801;SDS011;5453;50.852;7.102;2023-02-12T00:50:11;17.00;;;7.18;;
10801;SDS011;5453;50.852;7.102;2023-02-12T00:52:44;16.90;;;7.35;;
10801;SDS011;5453;50.852;7.102;2023-02-12T00:55:18;15.80;;;7.15;;
10801;SDS011;5453;50.852;7.102;2023-02-12T00:57:50;14.13;;;6.82;;
10801;SDS011;5453;50.852;7.102;2023-02-12T01:00:22;25.08;;;10.25;;
10801;SDS011;5453;50.852;7.102;2023-02-12T01:02:54;30.40;;;12.63;;
10801;SDS011;5453;50.852;7.102;2023-02-12T01:05:26;22.63;;;10.32;;
10801;SDS011;5453;50.852;7.102;2023-02-12T01:07:59;24.20;;;10.60;;
10801;SDS011;5453;50.852;7.102;2023-02-12T01:10:35;21.30;;;9.75;;
10801;SDS011;5453;50.852;7.102;2023-02-12T01:13:08;19.65;;;8.60;;
10801;SDS011;5453;50.852;7.102;2023-02-12T01:15:41;20.38;;;9.25;;
10801;SDS011;5453;50.852;7.102;2023-02-12T01:18:13;22.63;;;9.70;;
10801;SDS011;5453;50.852;7.102;2023-02-12T01:20:46;24.80;;;10.23;;
10801;SDS011;5453;50.852;7.102;2023-02-12T01:23:18;22.75;;;9.23;;
10801;SDS011;5453;50.852;7.102;2023-02-12T01:25:52;22.60;;;8.98;;
10801;SDS011;5453;50.852;7.102;2023-02-12T01:28:24;20.33;;;8.10;;
10801;SDS011;5453;50.852;7.102;2023-02-12T01:30:56;20.50;;;7.97;;
10801;SDS011;5453;50.852;7.102;2023-02-12T01:33:30;19.25;;;7.90;;
10801;SDS011;5453;50.852;7.102;2023-02-12T01:36:02;18.20;;;7.57;;
10801;SDS011;5453;50.852;7.102;2023-02-12T01:38:34;23.35;;;8.85;;
10801;SDS011;5453;50.852;7.102;2023-02-12T01:41:09;19.23;;;7.80;;
10801;SDS011;5453;50.852;7.102;2023-02-12T01:43:43;21.45;;;8.57;;
10801;SDS011;5453;50.852;7.102;2023-02-12T01:46:16;25.60;;;10.38;;
10801;SDS011;5453;50.852;7.102;2023-02-12T01:48:48;25.02;;;9.45;;
10801;SDS011;5453;50.852;7.102;2023-02-12T01:51:21;23.17;;;8.70;;
10801;SDS011;5453;50.852;7.102;2023-02-12T01:53:55;17.83;;;8.30;;
10801;SDS011;5453;50.852;7.102;2023-02-12T01:56:35;24.98;;;10.52;;
10801;SDS011;5453;50.852;7.102;2023-02-12T01:59:08;22.20;;;8.50;;
10801;SDS011;5453;50.852;7.102;2023-02-12T02:01:41;21.60;;;8.82;;
10801;SDS011;5453;50.852;7.102;2023-02-12T02:04:14;19.40;;;7.97;;
10801;SDS011;5453;50.852;7.102;2023-02-12T02:06:51;20.58;;;8.52;;
10801;SDS011;5453;50.852;7.102;2023-02-12T02:09:28;19.58;;;7.75;;
10801;SDS011;5453;50.852;7.102;2023-02-12T02:12:06;18.13;;;7.95;;
10801;SDS011;5453;50.852;7.102;2023-02-12T02:15:00;18.73;;;8.20;;
10801;SDS011;5453;50.852;7.102;2023-02-12T02:17:36;19.65;;;9.00;;
10801;SDS011;5453;50.852;7.102;2023-02-12T02:23:25;20.08;;;8.68;;
10801;SDS011;5453;50.852;7.102;2023-02-12T02:26:44;18.08;;;8.38;;
10801;SDS011;5453;50.852;7.102;2023-02-12T02:33:07;21.60;;;10.02;;
10801;SDS011;5453;50.852;7.102;2023-02-12T02:35:54;19.40;;;8.40;;
10801;SDS011;5453;50.852;7.102;2023-02-12T02:38:41;17.58;;;8.00;;
10801;SDS011;5453;50.852;7.102;2023-02-12T02:41:19;19.42;;;8.65;;
10801;SDS011;5453;50.852;7.102;2023-02-12T02:44:01;17.42;;;7.63;;
10801;SDS011;5453;50.852;7.102;2023-02-12T02:46:41;18.77;;;8.23;;
10801;SDS011;5453;50.852;7.102;2023-02-12T02:49:18;17.10;;;8.07;;
10801;SDS011;5453;50.852;7.102;2023-02-12T02:51:58;17.05;;;7.68;;
10801;SDS011;5453;50.852;7.102;2023-02-12T02:54:35;16.50;;;7.28;;
10801;SDS011;5453;50.852;7.102;2023-02-12T02:57:13;18.20;;;8.25;;
10801;SDS011;5453;50.852;7.102;2023-02-12T02:59:49;17.38;;;8.13;;
10801;SDS011;5453;50.852;7.102;2023-02-12T03:02:28;18.77;;;8.20;;
10801;SDS011;5453;50.852;7.102;2023-02-12T03:05:06;18.65;;;9.13;;
10801;SDS011;5453;50.852;7.102;2023-02-12T03:07:43;20.52;;;7.90;;
10801;SDS011;5453;50.852;7.102;2023-02-12T03:10:21;18.80;;;8.68;;
10801;SDS011;5453;50.852;7.102;2023-02-12T03:12:59;22.90;;;10.00;;
10801;SDS011;5453;50.852;7.102;2023-02-12T03:15:38;19.95;;;9.80;;
10801;SDS011;5453;50.852;7.102;2023-02-12T03:18:16;21.52;;;9.18;;
10801;SDS011;5453;50.852;7.102;2023-02-12T03:20:52;22.30;;;8.93;;
10801;SDS011;5453;50.852;7.102;2023-02-12T03:23:30;20.75;;;8.65;;
10801;SDS011;5453;50.852;7.102;2023-02-12T03:26:09;18.55;;;7.97;;
10801;SDS011;5453;50.852;7.102;2023-02-12T03:28:44;20.63;;;8.50;;
10801;SDS011;5453;50.852;7.102;2023-02-12T03:31:19;19.45;;;8.43;;
10801;SDS011;5453;50.852;7.102;2023-02-12T03:34:03;18.30;;;8.57;;
10801;SDS011;5453;50.852;7.102;2023-02-12T03:36:44;18.27;;;8.30;;
10801;SDS011;5453;50.852;7.102;2023-02-12T03:39:24;19.40;;;8.05;;
10801;SDS011;5453;50.852;7.102;2023-02-12T03:42:03;21.23;;;8.45;;
10801;SDS011;5453;50.852;7.102;2023-02-12T03:44:43;18.98;;;8.40;;
10801;SDS011;5453;50.852;7.102;2023-02-12T03:47:22;16.92;;;7.70;;
10801;SDS011;5453;50.852;7.102;2023-02-12T03:50:05;20.90;;;8.25;;
10801;SDS011;5453;50.852;7.102;2023-02-12T03:52:44;15.70;;;6.80;;
10801;SDS011;5453;50.852;7.102;2023-02-12T03:55:17;18.65;;;8.13;;
10801;SDS011;5453;50.852;7.102;2023-02-12T03:57:51;17.80;;;7.82;;
10801;SDS011;5453;50.852;7.102;2023-02-12T04:00:29;18.67;;;8.27;;
10801;SDS011;5453;50.852;7.102;2023-02-12T04:03:02;18.95;;;8.00;;
10801;SDS011;5453;50.852;7.102;2023-02-12T04:05:36;19.00;;;8.27;;
10801;SDS011;5453;50.852;7.102;2023-02-12T04:08:08;18.83;;;8.57;;
10801;SDS011;5453;50.852;7.102;2023-02-12T04:10:45;21.98;;;10.27;;
10801;SDS011;5453;50.852;7.102;2023-02-12T04:13:32;21.92;;;9.20;;
10801;SDS011;5453;50.852;7.102;2023-02-12T04:16:16;18.95;;;8.73;;
10801;SDS011;5453;50.852;7.102;2023-02-12T04:18:56;17.75;;;8.02;;
10801;SDS011;5453;50.852;7.102;2023-02-12T04:21:36;17.65;;;7.97;;
10801;SDS011;5453;50.852;7.102;2023-02-12T04:24:16;16.10;;;7.85;;
10801;SDS011;5453;50.852;7.102;2023-02-12T04:26:56;22.55;;;9.07;;
10801;SDS011;5453;50.852;7.102;2023-02-12T04:29:36;19.73;;;8.65;;
10801;SDS011;5453;50.852;7.102;2023-02-12T04:32:19;22.70;;;9.18;;
10801;SDS011;5453;50.852;7.102;2023-02-12T04:35:04;19.85;;;8.25;;
10801;SDS011;5453;50.852;7.102;2023-02-12T04:37:47;20.42;;;8.85;;
10801;SDS011;5453;50.852;7.102;2023-02-12T04:40:22;20.92;;;9.82;;
10801;SDS011;5453;50.852;7.102;2023-02-12T04:42:55;23.15;;;10.52;;
10801;SDS011;5453;50.852;7.102;2023-02-12T04:45:28;21.85;;;9.73;;
10801;SDS011;5453;50.852;7.102;2023-02-12T04:48:03;24.65;;;11.88;;
10801;SDS011;5453;50.852;7.102;2023-02-12T04:50:37;26.15;;;12.90;;
10801;SDS011;5453;50.852;7.102;2023-02-12T04:53:13;29.23;;;13.00;;
10801;SDS011;5453;50.852;7.102;2023-02-12T04:55:46;28.75;;;12.32;;
10801;SDS011;5453;50.852;7.102;2023-02-12T04:58:19;28.88;;;12.55;;
10801;SDS011;5453;50.852;7.102;2023-02-12T05:00:51;28.05;;;12.52;;
10801;SDS011;5453;50.852;7.102;2023-02-12T05:03:23;26.33;;;12.68;;
10801;SDS011;5453;50.852;7.102;2023-02-12T05:06:00;26.52;;;11.98;;
10801;SDS011;5453;50.852;7.102;2023-02-12T05:08:34;24.85;;;11.63;;
10801;SDS011;5453;50.852;7.102;2023-02-12T05:11:07;25.83;;;10.43;;
10801;SDS011;5453;50.852;7.102;2023-02-12T05:13:40;24.15;;;9.15;;
10801;SDS011;5453;50.852;7.102;2023-02-12T05:16:12;19.60;;;9.23;;
10801;SDS011;5453;50.852;7.102;2023-02-12T05:18:45;23.05;;;10.27;;
10801;SDS011;5453;50.852;7.102;2023-02-12T05:21:17;19.98;;;9.30;;
10801;SDS011;5453;50.852;7.102;2023-02-12T05:23:51;21.08;;;9.80;;
10801;SDS011;5453;50.852;7.102;2023-02-12T05:26:24;21.42;;;9.65;;
10801;SDS011;5453;50.852;7.102;2023-02-12T05:28:56;21.77;;;8.93;;
10801;SDS011;5453;50.852;7.102;2023-02-12T05:31:29;19.00;;;8.00;;
10801;SDS011;5453;50.852;7.102;2023-02-12T05:34:01;18.23;;;8.38;;
10801;SDS011;5453;50.852;7.102;2023-02-12T05:36:33;15.38;;;7.40;;
10801;SDS011;5453;50.852;7.102;2023-02-12T05:39:06;16.60;;;8.10;;
10801;SDS011;5453;50.852;7.102;2023-02-12T05:41:38;16.33;;;7.45;;
10801;SDS011;5453;50.852;7.102;2023-02-12T05:44:10;16.10;;;8.00;;
10801;SDS011;5453;50.852;7.102;2023-02-12T05:46:44;16.63;;;7.68;;
10801;SDS011;5453;50.852;7.102;2023-02-12T05:49:16;17.08;;;7.35;;
10801;SDS011;5453;50.852;7.102;2023-02-12T05:51:48;19.17;;;8.57;;
10801;SDS011;5453;50.852;7.102;2023-02-12T05:54:21;20.15;;;8.43;;
10801;SDS011;5453;50.852;7.102;2023-02-12T05:56:53;18.52;;;7.97;;
10801;SDS011;5453;50.852;7.102;2023-02-12T05:59:26;19.02;;;8.63;;
10801;SDS011;5453;50.852;7.102;2023-02-12T06:01:58;20.92;;;9.02;;
10801;SDS011;5453;50.852;7.102;2023-02-12T06:04:30;18.45;;;8.02;;
10801;SDS011;5453;50.852;7.102;2023-02-12T06:07:02;21.95;;;9.13;;
10801;SDS011;5453;50.852;7.102;2023-02-12T06:09:35;22.42;;;9.63;;
10801;SDS011;5453;50.852;7.102;2023-02-12T06:12:08;19.13;;;7.82;;
10801;SDS011;5453;50.852;7.102;2023-02-12T06:14:40;19.67;;;8.98;;
10801;SDS011;5453;50.852;7.102;2023-02-12T06:17:12;17.70;;;8.10;;
10801;SDS011;5453;50.852;7.102;2023-02-12T06:19:44;17.45;;;7.55;;
10801;SDS011;5453;50.852;7.102;2023-02-12T06:22:16;18.00;;;8.02;;
10801;SDS011;5453;50.852;7.102;2023-02-12T06:24:50;17.67;;;7.20;;
10801;SDS011;5453;50.852;7.102;2023-02-12T06:27:22;18.23;;;7.43;;
10801;SDS011;5453;50.852;7.102;2023-02-12T06:29:54;15.23;;;7.03;;
10801;SDS011;5453;50.852;7.102;2023-02-12T06:32:26;15.93;;;7.20;;
10801;SDS011;5453;50.852;7.102;2023-02-12T06:34:58;17.85;;;7.82;;
10801;SDS011;5453;50.852;7.102;2023-02-12T06:37:30;18.02;;;7.50;;
10801;SDS011;5453;50.852;7.102;2023-02-12T06:40:07;16.75;;;7.32;;
10801;SDS011;5453;50.852;7.102;2023-02-12T06:42:40;22.73;;;10.30;;
10801;SDS011;5453;50.852;7.102;2023-02-12T06:45:12;23.75;;;11.07;;
10801;SDS011;5453;50.852;7.102;2023-02-12T06:47:44;26.77;;;10.77;;
10801;SDS011;5453;50.852;7.102;2023-02-12T06:50:16;23.33;;;9.75;;
10801;SDS011;5453;50.852;7.102;2023-02-12T06:52:49;23.23;;;9.98;;
10801;SDS011;5453;50.852;7.102;2023-02-12T06:55:23;21.95;;;9.35;;
10801;SDS011;5453;50.852;7.102;2023-02-12T06:57:55;18.67;;;8.50;;
10801;SDS011;5453;50.852;7.102;2023-02-12T07:00:27;19.85;;;8.65;;
10801;SDS011;5453;50.852;7.102;2023-02-12T07:02:59;21.63;;;9.52;;
10801;SDS011;5453;50.852;7.102;2023-02-12T07:05:31;19.60;;;8.88;;
10801;SDS011;5453;50.852;7.102;2023-02-12T07:10:40;18.00;;;7.97;;
10801;SDS011;5453;50.852;7.102;2023-02-12T07:13:12;27.67;;;11.65;;
10801;SDS011;5453;50.852;7.102;2023-02-12T07:15:44;25.75;;;10.93;;
10801;SDS011;5453;50.852;7.102;2023-02-12T07:18:16;28.52;;;11.23;;
10801;SDS011;5453;50.852;7.102;2023-02-12T07:20:48;25.63;;;11.43;;
10801;SDS011;5453;50.852;7.102;2023-02-12T07:23:20;27.10;;;11.43;;
10801;SDS011;5453;50.852;7.102;2023-02-12T07:25:57;27.30;;;11.18;;
10801;SDS011;5453;50.852;7.102;2023-02-12T07:28:31;24.70;;;10.00;;
10801;SDS011;5453;50.852;7.102;2023-02-12T07:31:08;22.88;;;10.00;;
10801;SDS011;5453;50.852;7.102;2023-02-12T07:33:43;24.95;;;10.68;;
10801;SDS011;5453;50.852;7.102;2023-02-12T07:36:17;25.58;;;10.80;;
10801;SDS011;5453;50.852;7.102;2023-02-12T07:38:50;29.83;;;11.45;;
10801;SDS011;5453;50.852;7.102;2023-02-12T07:41:24;22.55;;;9.55;;
10801;SDS011;5453;50.852;7.102;2023-02-12T07:43:58;24.58;;;10.23;;
10801;SDS011;5453;50.852;7.102;2023-02-12T07:46:36;22.60;;;9.15;;
10801;SDS011;5453;50.852;7.102;2023-02-12T07:49:11;24.92;;;11.00;;
10801;SDS011;5453;50.852;7.102;2023-02-12T07:51:45;28.80;;;12.65;;
10801;SDS011;5453;50.852;7.102;2023-02-12T07:54:18;27.77;;;11.40;;
10801;SDS011;5453;50.852;7.102;2023-02-12T07:56:51;30.92;;;12.52;;
10801;SDS011;5453;50.852;7.102;2023-02-12T07:59:23;26.10;;;10.35;;
10801;SDS011;5453;50.852;7.102;2023-02-12T08:01:56;23.88;;;10.23;;
10801;SDS011;5453;50.852;7.102;2023-02-12T08:04:29;25.15;;;10.60;;
10801;SDS011;5453;50.852;7.102;2023-02-12T08:07:02;26.50;;;11.05;;
10801;SDS011;5453;50.852;7.102;2023-02-12T08:09:34;22.75;;;9.02;;
10801;SDS011;5453;50.852;7.102;2023-02-12T08:12:07;22.52;;;9.82;;
10801;SDS011;5453;50.852;7.102;2023-02-12T08:14:39;27.38;;;10.57;;
10801;SDS011;5453;50.852;7.102;2023-02-12T08:17:11;22.70;;;8.82;;
10801;SDS011;5453;50.852;7.102;2023-02-12T08:19:43;21.70;;;8.68;;
10801;SDS011;5453;50.852;7.102;2023-02-12T08:22:16;22.70;;;10.00;;
10801;SDS011;5453;50.852;7.102;2023-02-12T08:24:48;20.45;;;8.45;;
10801;SDS011;5453;50.852;7.102;2023-02-12T08:27:21;27.90;;;11.40;;
10801;SDS011;5453;50.852;7.102;2023-02-12T08:29:53;24.73;;;9.60;;
10801;SDS011;5453;50.852;7.102;2023-02-12T08:32:25;22.38;;;9.18;;
10801;SDS011;5453;50.852;7.102;2023-02-12T08:34:58;24.85;;;10.13;;
10801;SDS011;5453;50.852;7.102;2023-02-12T08:37:31;38.58;;;14.73;;
10801;SDS011;5453;50.852;7.102;2023-02-12T08:40:03;33.92;;;13.63;;
10801;SDS011;5453;50.852;7.102;2023-02-12T08:42:37;34.33;;;13.05;;
10801;SDS011;5453;50.852;7.102;2023-02-12T08:45:09;28.70;;;12.40;;
10801;SDS011;5453;50.852;7.102;2023-02-12T08:47:41;37.13;;;14.18;;
10801;SDS011;5453;50.852;7.102;2023-02-12T08:50:14;32.17;;;12.02;;
10801;SDS011;5453;50.852;7.102;2023-02-12T08:52:46;41.42;;;14.48;;
10801;SDS011;5453;50.852;7.102;2023-02-12T08:55:18;38.35;;;13.90;;
10801;SDS011;5453;50.852;7.102;2023-02-12T08:57:52;31.65;;;13.20;;
10801;SDS011;5453;50.852;7.102;2023-02-12T09:00:26;32.25;;;11.60;;
10801;SDS011;5453;50.852;7.102;2023-02-12T09:02:59;27.42;;;10.90;;
10801;SDS011;5453;50.852;7.102;2023-02-12T09:05:31;32.53;;;11.93;;
10801;SDS011;5453;50.852;7.102;2023-02-12T09:08:03;34.63;;;11.63;;
10801;SDS011;5453;50.852;7.102;2023-02-12T09:10:37;34.15;;;12.45;;
10801;SDS011;5453;50.852;7.102;2023-02-12T09:13:12;33.67;;;12.60;;
10801;SDS011;5453;50.852;7.102;2023-02-12T09:15:45;33.00;;;11.27;;
10801;SDS011;5453;50.852;7.102;2023-02-12T09:18:17;30.30;;;11.20;;
10801;SDS011;5453;50.852;7.102;2023-02-12T09:20:49;29.67;;;10.70;;
10801;SDS011;5453;50.852;7.102;2023-02-12T09:23:21;29.05;;;10.80;;
10801;SDS011;5453;50.852;7.102;2023-02-12T09:25:53;35.35;;;12.75;;
10801;SDS011;5453;50.852;7.102;2023-02-12T09:28:26;31.35;;;11.43;;
10801;SDS011;5453;50.852;7.102;2023-02-12T09:31:03;29.50;;;11.68;;
10801;SDS011;5453;50.852;7.102;2023-02-12T09:33:36;25.42;;;9.68;;
10801;SDS011;5453;50.852;7.102;2023-02-12T09:36:09;29.17;;;11.52;;
10801;SDS011;5453;50.852;7.102;2023-02-12T09:41:22;34.45;;;13.18;;
10801;SDS011;5453;50.852;7.102;2023-02-12T09:44:21;38.03;;;12.85;;
10801;SDS011;5453;50.852;7.102;2023-02-12T09:47:01;32.90;;;12.30;;
10801;SDS011;5453;50.852;7.102;2023-02-12T09:49:40;38.60;;;13.02;;
10801;SDS011;5453;50.852;7.102;2023-02-12T09:52:27;41.38;;;13.38;;
10801;SDS011;5453;50.852;7.102;2023-02-12T09:55:00;38.33;;;13.40;;
10801;SDS011;5453;50.852;7.102;2023-02-12T09:57:33;42.85;;;15.65;;
10801;SDS011;5453;50.852;7.102;2023-02-12T10:00:10;43.00;;;15.02;;
10801;SDS011;5453;50.852;7.102;2023-02-12T10:02:48;42.58;;;15.02;;
10801;SDS011;5453;50.852;7.102;2023-02-12T10:05:23;35.80;;;12.98;;
10801;SDS011;5453;50.852;7.102;2023-02-12T10:08:07;38.80;;;13.93;;
10801;SDS011;5453;50.852;7.102;2023-02-12T10:11:23;38.35;;;13.52;;
10801;SDS011;5453;50.852;7.102;2023-02-12T10:14:15;35.28;;;12.88;;
10801;SDS011;5453;50.852;7.102;2023-02-12T10:17:22;37.70;;;13.07;;
10801;SDS011;5453;50.852;7.102;2023-02-12T10:20:18;33.03;;;12.52;;
10801;SDS011;5453;50.852;7.102;2023-02-12T10:26:28;31.58;;;12.38;;
10801;SDS011;5453;50.852;7.102;2023-02-12T10:29:07;34.55;;;13.07;;
10801;SDS011;5453;50.852;7.102;2023-02-12T10:31:44;35.20;;;12.02;;
10801;SDS011;5453;50.852;7.102;2023-02-12T10:34:21;32.42;;;12.57;;
10801;SDS011;5453;50.852;7.102;2023-02-12T10:37:01;33.35;;;11.85;;
10801;SDS011;5453;50.852;7.102;2023-02-12T10:39:35;35.10;;;13.05;;
10801;SDS011;5453;50.852;7.102;2023-02-12T10:42:13;31.58;;;11.27;;
10801;SDS011;5453;50.852;7.102;2023-02-12T10:44:48;31.55;;;11.82;;
10801;SDS011;5453;50.852;7.102;2023-02-12T10:47:21;33.63;;;12.88;;
10801;SDS011;5453;50.852;7.102;2023-02-12T10:49:58;35.28;;;12.18;;
10801;SDS011;5453;50.852;7.102;2023-02-12T10:52:34;43.78;;;15.50;;
10801;SDS011;5453;50.852;7.102;2023-02-12T10:55:27;40.30;;;14.93;;
10801;SDS011;5453;50.852;7.102;2023-02-12T10:58:02;34.67;;;12.65;;
10801;SDS011;5453;50.852;7.102;2023-02-12T11:00:35;35.97;;;13.07;;
10801;SDS011;5453;50.852;7.102;2023-02-12T11:03:18;34.70;;;12.88;;
10801;SDS011;5453;50.852;7.102;2023-02-12T11:05:54;32.22;;;12.32;;
10801;SDS011;5453;50.852;7.102;2023-02-12T11:08:28;28.13;;;10.73;;
10801;SDS011;5453;50.852;7.102;2023-02-12T11:11:05;29.85;;;11.20;;
10801;SDS011;5453;50.852;7.102;2023-02-12T11:13:43;33.60;;;12.38;;
10801;SDS011;5453;50.852;7.102;2023-02-12T11:16:25;33.13;;;11.38;;
10801;SDS011;5453;50.852;7.102;2023-02-12T11:19:01;30.85;;;11.48;;
10801;SDS011;5453;50.852;7.102;2023-02-12T11:21:36;30.58;;;11.10;;
10801;SDS011;5453;50.852;7.102;2023-02-12T11:24:25;45.85;;;14.07;;
10801;SDS011;5453;50.852;7.102;2023-02-12T11:27:11;37.00;;;13.25;;
10801;SDS011;5453;50.852;7.102;2023-02-12T11:30:03;38.28;;;13.10;;
10801;SDS011;5453;50.852;7.102;2023-02-12T11:32:47;32.65;;;12.10;;
10801;SDS011;5453;50.852;7.102;2023-02-12T11:35:21;32.05;;;11.98;;
10801;SDS011;5453;50.852;7.102;2023-02-12T11:37:58;26.40;;;9.52;;
10801;SDS011;5453;50.852;7.102;2023-02-12T11:40:31;25.75;;;9.60;;
10801;SDS011;5453;50.852;7.102;2023-02-12T11:43:04;25.85;;;9.65;;
10801;SDS011;5453;50.852;7.102;2023-02-12T11:45:40;24.10;;;9.00;;
10801;SDS011;5453;50.852;7.102;2023-02-12T11:48:15;27.48;;;9.73;;
10801;SDS011;5453;50.852;7.102;2023-02-12T11:50:53;33.47;;;12.60;;
10801;SDS011;5453;50.852;7.102;2023-02-12T11:53:29;32.25;;;10.65;;
10801;SDS011;5453;50.852;7.102;2023-02-12T11:56:05;27.67;;;10.45;;
10801;SDS011;5453;50.852;7.102;2023-02-12T11:58:39;27.15;;;10.73;;
10801;SDS011;5453;50.852;7.102;2023-02-12T12:01:15;24.33;;;9.73;;
10801;SDS011;5453;50.852;7.102;2023-02-12T12:03:53;17.42;;;6.78;;
10801;SDS011;5453;50.852;7.102;2023-02-12T12:06:32;21.50;;;8.40;;
10801;SDS011;5453;50.852;7.102;2023-02-12T12:09:12;23.10;;;9.13;;
10801;SDS011;5453;50.852;7.102;2023-02-12T12:11:55;25.40;;;9.40;;
10801;SDS011;5453;50.852;7.102;2023-02-12T12:14:35;22.88;;;8.93;;
10801;SDS011;5453;50.852;7.102;2023-02-12T12:17:26;23.13;;;9.88;;
10801;SDS011;5453;50.852;7.102;2023-02-12T12:20:30;21.17;;;8.32;;
10801;SDS011;5453;50.852;7.102;2023-02-12T12:23:10;24.58;;;8.48;;
10801;SDS011;5453;50.852;7.102;2023-02-12T12:25:50;25.23;;;10.10;;
10801;SDS011;5453;50.852;7.102;2023-02-12T12:28:28;25.13;;;9.88;;
10801;SDS011;5453;50.852;7.102;2023-02-12T12:31:07;20.27;;;7.63;;
10801;SDS011;5453;50.852;7.102;2023-02-12T12:33:44;20.45;;;8.00;;
10801;SDS011;5453;50.852;7.102;2023-02-12T12:39:54;24.92;;;9.27;;
10801;SDS011;5453;50.852;7.102;2023-02-12T12:42:56;22.08;;;8.68;;
10801;SDS011;5453;50.852;7.102;2023-02-12T12:46:01;19.15;;;7.97;;
10801;SDS011;5453;50.852;7.102;2023-02-12T12:49:17;18.70;;;7.80;;
10801;SDS011;5453;50.852;7.102;2023-02-12T12:52:23;17.98;;;7.07;;
10801;SDS011;5453;50.852;7.102;2023-02-12T12:58:42;15.48;;;6.47;;
10801;SDS011;5453;50.852;7.102;2023-02-12T13:01:48;21.73;;;8.98;;
10801;SDS011;5453;50.852;7.102;2023-02-12T13:04:51;18.58;;;7.68;;
10801;SDS011;5453;50.852;7.102;2023-02-12T13:08:16;23.02;;;8.88;;
10801;SDS011;5453;50.852;7.102;2023-02-12T13:11:05;24.30;;;8.18;;
10801;SDS011;5453;50.852;7.102;2023-02-12T13:13:50;22.08;;;8.98;;
10801;SDS011;5453;50.852;7.102;2023-02-12T13:16:28;22.08;;;9.63;;
10801;SDS011;5453;50.852;7.102;2023-02-12T13:19:06;20.20;;;8.85;;
10801;SDS011;5453;50.852;7.102;2023-02-12T13:21:50;19.85;;;8.10;;
10801;SDS011;5453;50.852;7.102;2023-02-12T13:24:28;24.17;;;8.52;;
10801;SDS011;5453;50.852;7.102;2023-02-12T13:27:13;20.48;;;7.65;;
10801;SDS011;5453;50.852;7.102;2023-02-12T13:29:51;21.13;;;8.70;;
10801;SDS011;5453;50.852;7.102;2023-02-12T13:32:28;14.73;;;7.32;;
10801;SDS011;5453;50.852;7.102;2023-02-12T13:35:04;20.88;;;8.32;;
10801;SDS011;5453;50.852;7.102;2023-02-12T13:37:39;20.23;;;7.90;;
10801;SDS011;5453;50.852;7.102;2023-02-12T13:40:15;18.98;;;7.47;;
10801;SDS011;5453;50.852;7.102;2023-02-12T13:42:50;18.65;;;7.60;;
10801;SDS011;5453;50.852;7.102;2023-02-12T13:45:35;15.35;;;7.28;;
10801;SDS011;5453;50.852;7.102;2023-02-12T13:51:24;22.48;;;8.82;;
10801;SDS011;5453;50.852;7.102;2023-02-12T13:54:25;19.02;;;7.50;;
10801;SDS011;5453;50.852;7.102;2023-02-12T13:57:12;18.80;;;7.25;;
10801;SDS011;5453;50.852;7.102;2023-02-12T13:59:46;18.77;;;8.00;;
10801;SDS011;5453;50.852;7.102;2023-02-12T14:02:25;20.35;;;7.88;;
10801;SDS011;5453;50.852;7.102;2023-02-12T14:05:25;25.25;;;9.57;;
10801;SDS011;5453;50.852;7.102;2023-02-12T14:08:01;21.65;;;8.43;;
10801;SDS011;5453;50.852;7.102;2023-02-12T14:10:36;19.45;;;7.80;;
10801;SDS011;5453;50.852;7.102;2023-02-12T14:13:15;15.23;;;6.32;;
10801;SDS011;5453;50.852;7.102;2023-02-12T14:15:52;16.40;;;6.55;;
10801;SDS011;5453;50.852;7.102;2023-02-12T14:18:29;17.33;;;6.38;;
10801;SDS011;5453;50.852;7.102;2023-02-12T14:27:26;15.38;;;5.65;;
10801;SDS011;5453;50.852;7.102;2023-02-12T14:33:09;12.38;;;5.03;;
10801;SDS011;5453;50.852;7.102;2023-02-12T14:45:28;15.05;;;5.20;;
10801;SDS011;5453;50.852;7.102;2023-02-12T14:48:04;11.10;;;4.65;;
10801;SDS011;5453;50.852;7.102;2023-02-12T14:50:40;14.05;;;6.18;;
10801;SDS011;5453;50.852;7.102;2023-02-12T14:53:26;14.15;;;5.57;;
10801;SDS011;5453;50.852;7.102;2023-02-12T14:56:02;12.43;;;5.13;;
10801;SDS011;5453;50.852;7.102;2023-02-12T14:58:38;12.43;;;4.72;;
10801;SDS011;5453;50.852;7.102;2023-02-12T15:01:10;9.55;;;4.25;;
10801;SDS011;5453;50.852;7.102;2023-02-12T15:03:45;11.63;;;4.32;;
10801;SDS011;5453;50.852;7.102;2023-02-12T15:06:22;10.50;;;4.32;;
10801;SDS011;5453;50.852;7.102;2023-02-12T15:09:08;10.20;;;4.63;;
10801;SDS011;5453;50.852;7.102;2023-02-12T15:11:47;11.45;;;4.88;;
10801;SDS011;5453;50.852;7.102;2023-02-12T15:14:23;11.30;;;4.40;;
10801;SDS011;5453;50.852;7.102;2023-02-12T15:17:00;10.40;;;5.07;;
10801;SDS011;5453;50.852;7.102;2023-02-12T15:19:39;13.38;;;5.38;;
10801;SDS011;5453;50.852;7.102;2023-02-12T15:22:20;14.27;;;5.70;;
10801;SDS011;5453;50.852;7.102;2023-02-12T15:27:47;13.63;;;4.95;;
10801;SDS011;5453;50.852;7.102;2023-02-12T15:30:22;13.75;;;5.25;;
10801;SDS011;5453;50.852;7.102;2023-02-12T15:32:57;15.43;;;5.43;;
10801;SDS011;5453;50.852;7.102;2023-02-12T15:35:34;14.73;;;4.63;;
10801;SDS011;5453;50.852;7.102;2023-02-12T15:38:14;11.27;;;4.65;;
10801;SDS011;5453;50.852;7.102;2023-02-12T15:40:54;9.65;;;4.50;;
10801;SDS011;5453;50.852;7.102;2023-02-12T15:43:30;10.68;;;4.55;;
10801;SDS011;5453;50.852;7.102;2023-02-12T15:46:05;12.93;;;4.60;;
10801;SDS011;5453;50.852;7.102;2023-02-12T15:48:47;8.48;;;3.67;;
10801;SDS011;5453;50.852;7.102;2023-02-12T15:51:22;8.38;;;3.70;;
10801;SDS011;5453;50.852;7.102;2023-02-12T15:54:00;8.23;;;3.28;;
10801;SDS011;5453;50.852;7.102;2023-02-12T15:56:38;8.02;;;3.83;;
10801;SDS011;5453;50.852;7.102;2023-02-12T15:59:15;8.68;;;3.50;;
10801;SDS011;5453;50.852;7.102;2023-02-12T16:01:51;8.23;;;3.25;;
10801;SDS011;5453;50.852;7.102;2023-02-12T16:04:27;9.82;;;4.28;;
10801;SDS011;5453;50.852;7.102;2023-02-12T16:07:02;9.68;;;3.80;;
10801;SDS011;5453;50.852;7.102;2023-02-12T16:09:34;11.32;;;4.93;;
10801;SDS011;5453;50.852;7.102;2023-02-12T16:12:11;11.48;;;4.40;;
10801;SDS011;5453;50.852;7.102;2023-02-12T16:14:46;12.68;;;5.03;;
10801;SDS011;5453;50.852;7.102;2023-02-12T16:17:22;12.82;;;5.30;;
10801;SDS011;5453;50.852;7.102;2023-02-12T16:19:59;15.70;;;6.40;;
10801;SDS011;5453;50.852;7.102;2023-02-12T16:22:35;13.90;;;6.20;;
10801;SDS011;5453;50.852;7.102;2023-02-12T16:25:12;14.45;;;5.68;;
10801;SDS011;5453;50.852;7.102;2023-02-12T16:27:52;15.20;;;6.00;;
10801;SDS011;5453;50.852;7.102;2023-02-12T16:30:29;14.00;;;5.57;;